createdAt,value
2022-08-01T00:00:30.526Z,26.27
2022-08-01T00:03:20.420Z,26.40
2022-08-01T00:06:09.275Z,29.70
2022-08-01T00:08:58.529Z,29.42
2022-08-01T00:11:47.412Z,29.80
2022-08-01T00:14:45.342Z,35.30
2022-08-01T00:17:34.372Z,34.63
2022-08-01T00:20:26.512Z,24.88
2022-08-01T00:23:15.163Z,27.80
2022-08-01T00:25:57.789Z,22.65
2022-08-01T00:28:46.274Z,26.88
2022-08-01T00:31:35.540Z,25.33
2022-08-01T00:34:24.309Z,24.52
2022-08-01T00:37:06.720Z,28.27
2022-08-01T00:39:55.518Z,27.30
2022-08-01T00:42:44.277Z,26.88
2022-08-01T00:45:26.445Z,26.40
2022-08-01T00:48:16.272Z,29.20
2022-08-01T00:50:59.209Z,22.48
2022-08-01T00:53:51.920Z,24.80
2022-08-01T00:56:47.374Z,32.92
2022-08-01T00:59:36.291Z,25.52
2022-08-01T01:02:20.072Z,26.13
2022-08-01T01:05:08.505Z,30.48
2022-08-01T01:07:57.834Z,29.20
2022-08-01T01:11:01.549Z,33.50
2022-08-01T01:14:01.805Z,43.60
2022-08-01T01:16:54.289Z,37.65
2022-08-01T01:19:41.572Z,43.05
2022-08-01T01:23:04.415Z,35.95
2022-08-01T01:25:46.565Z,38.92
2022-08-01T01:28:35.545Z,40.63
2022-08-01T01:31:21.682Z,34.20
2022-08-01T01:34:13.543Z,42.65
2022-08-01T01:36:58.807Z,41.85
2022-08-01T01:39:54.004Z,47.28
2022-08-01T01:42:38.830Z,47.92
2022-08-01T01:45:28.553Z,49.90
2022-08-01T01:48:12.695Z,49.33
2022-08-01T01:51:02.495Z,50.13
2022-08-01T01:53:45.818Z,54.33
2022-08-01T01:56:36.277Z,56.30
2022-08-01T01:59:18.434Z,56.33
2022-08-01T02:02:16.940Z,53.95
2022-08-01T02:05:01.576Z,45.72
2022-08-01T02:07:51.525Z,45.72
2022-08-01T02:10:41.249Z,36.83
2022-08-01T02:13:30.538Z,41.58
2022-08-01T02:16:14.526Z,27.08
2022-08-01T02:19:03.527Z,25.17
2022-08-01T02:21:56.959Z,28.27
2022-08-01T02:24:47.533Z,30.15
2022-08-01T02:27:42.676Z,31.02
2022-08-01T02:30:34.249Z,32.53
2022-08-01T02:33:22.868Z,33.15
2022-08-01T02:36:32.468Z,34.47
2022-08-01T02:39:21.808Z,35.60
2022-08-01T02:42:15.217Z,42.05
2022-08-01T02:44:58.813Z,42.22
2022-08-01T02:47:49.518Z,50.80
2022-08-01T02:50:40.407Z,49.17
2022-08-01T02:53:43.759Z,46.20
2022-08-01T02:56:46.528Z,49.08
2022-08-01T02:59:36.889Z,39.42
2022-08-01T03:02:23.261Z,38.55
2022-08-01T03:05:07.383Z,32.63
2022-08-01T03:08:02.585Z,24.85
2022-08-01T03:10:55.439Z,16.48
2022-08-01T03:13:39.831Z,17.08
2022-08-01T03:16:30.266Z,26.98
2022-08-01T03:19:20.331Z,23.13
2022-08-01T03:22:08.144Z,21.42
2022-08-01T03:25:00.535Z,21.42
2022-08-01T03:27:51.562Z,29.75
2022-08-01T03:30:35.288Z,27.55
2022-08-01T03:33:24.872Z,29.40
2022-08-01T03:36:09.540Z,21.15
2022-08-01T03:39:01.462Z,19.52
2022-08-01T03:41:52.547Z,18.02
2022-08-01T03:44:43.193Z,12.95
2022-08-01T03:47:33.294Z,11.90
2022-08-01T03:50:24.854Z,18.15
2022-08-01T03:53:09.260Z,14.98
2022-08-01T03:55:59.325Z,14.45
2022-08-01T03:58:50.289Z,15.85
2022-08-01T04:01:33.536Z,20.58
2022-08-01T04:04:22.255Z,16.90
2022-08-01T04:07:08.247Z,17.55
2022-08-01T04:09:57.310Z,13.80
2022-08-01T04:12:39.691Z,20.77
2022-08-01T04:15:22.262Z,17.45
2022-08-01T04:18:11.250Z,20.50
2022-08-01T04:20:55.794Z,24.05
2022-08-01T04:23:44.508Z,17.92
2022-08-01T04:26:35.268Z,24.63
2022-08-01T04:29:26.540Z,22.48
2022-08-01T04:32:09.743Z,25.73
2022-08-01T04:35:00.535Z,21.60
2022-08-01T04:37:44.526Z,21.13
2022-08-01T04:40:35.541Z,28.42
2022-08-01T04:43:17.673Z,25.38
2022-08-01T04:46:07.505Z,26.55
2022-08-01T04:48:57.371Z,22.60
2022-08-01T04:51:39.411Z,26.45
2022-08-01T04:54:30.552Z,29.80
2022-08-01T04:57:25.303Z,30.25
2022-08-01T05:00:08.315Z,31.77
2022-08-01T05:02:57.514Z,34.17
2022-08-01T05:05:45.597Z,33.63
2022-08-01T05:08:28.532Z,30.65
2022-08-01T05:11:10.451Z,33.13
2022-08-01T05:14:00.274Z,31.95
2022-08-01T05:16:43.823Z,30.65
2022-08-01T05:19:32.264Z,30.17
2022-08-01T05:22:21.275Z,35.38
2022-08-01T05:25:03.904Z,39.03
2022-08-01T05:27:54.287Z,40.53
2022-08-01T05:30:36.832Z,41.25
2022-08-01T05:33:25.575Z,43.70
2022-08-01T05:36:07.593Z,42.90
2022-08-01T05:38:56.494Z,41.88
2022-08-01T05:41:45.259Z,42.75
2022-08-01T05:44:34.258Z,45.05
2022-08-01T05:47:16.685Z,43.28
2022-08-01T05:50:05.486Z,44.17
2022-08-01T05:52:54.273Z,44.65
2022-08-01T05:55:37.322Z,46.63
2022-08-01T05:58:26.230Z,43.60
2022-08-01T06:01:08.610Z,36.47
2022-08-01T06:03:57.399Z,40.55
2022-08-01T06:06:46.277Z,36.08
2022-08-01T06:09:29.300Z,37.95
2022-08-01T06:12:18.286Z,35.78
2022-08-01T06:15:00.596Z,37.70
2022-08-01T06:17:49.246Z,39.35
2022-08-01T06:20:31.955Z,38.10
2022-08-01T06:23:31.994Z,40.13
2022-08-01T06:26:23.504Z,40.67
2022-08-01T06:29:05.777Z,41.15
2022-08-01T06:31:54.292Z,37.38
2022-08-01T06:34:42.951Z,38.30
2022-08-01T06:37:24.344Z,42.05
2022-08-01T06:40:17.423Z,40.40
2022-08-01T06:42:59.281Z,40.42
2022-08-01T06:45:42.765Z,43.25
2022-08-01T06:48:31.263Z,38.00
2022-08-01T06:51:17.530Z,36.42
2022-08-01T06:54:06.495Z,42.50
2022-08-01T06:57:01.090Z,36.60
2022-08-01T06:59:55.569Z,41.60
2022-08-01T07:02:45.501Z,38.30
2022-08-01T07:05:28.724Z,45.35
2022-08-01T07:08:17.301Z,41.85
2022-08-01T07:11:01.196Z,39.70
2022-08-01T07:13:50.565Z,42.50
2022-08-01T07:16:32.843Z,53.47
2022-08-01T07:19:21.513Z,44.88
2022-08-01T07:22:04.255Z,43.63
2022-08-01T07:24:54.439Z,43.80
2022-08-01T07:27:37.016Z,47.53
2022-08-01T07:30:25.503Z,43.38
2022-08-01T07:33:15.491Z,50.63
2022-08-01T07:36:05.703Z,57.35
2022-08-01T07:38:50.507Z,42.80
2022-08-01T07:42:04.682Z,49.05
2022-08-01T07:44:41.979Z,53.17
2022-08-01T07:47:37.114Z,48.65
2022-08-01T07:50:25.508Z,50.28
2022-08-01T07:53:07.623Z,50.55
2022-08-01T07:55:56.490Z,43.38
2022-08-01T07:58:52.252Z,48.92
2022-08-01T08:01:47.362Z,53.92
2022-08-01T08:04:37.297Z,50.65
2022-08-01T08:07:19.691Z,48.78
2022-08-01T08:10:08.499Z,51.00
2022-08-01T08:12:59.479Z,48.75
2022-08-01T08:15:48.469Z,50.10
2022-08-01T08:18:30.267Z,49.88
2022-08-01T08:21:12.612Z,58.13
2022-08-01T08:24:19.490Z,48.70
2022-08-01T08:27:02.830Z,53.38
2022-08-01T08:29:51.512Z,49.30
2022-08-01T08:32:33.361Z,48.50
2022-08-01T08:35:40.372Z,48.67
2022-08-01T08:38:32.660Z,45.72
2022-08-01T08:41:20.728Z,51.88
2022-08-01T08:44:05.357Z,50.63
2022-08-01T08:47:00.283Z,48.50
2022-08-01T08:49:52.532Z,51.33
2022-08-01T08:52:35.552Z,45.78
2022-08-01T08:55:26.509Z,50.97
2022-08-01T08:58:08.924Z,44.97
2022-08-01T09:00:57.479Z,53.95
2022-08-01T09:03:53.265Z,50.55
2022-08-01T09:06:42.541Z,52.15
2022-08-01T09:09:24.555Z,56.38
2022-08-01T09:12:13.265Z,48.70
2022-08-01T09:15:03.258Z,44.85
2022-08-01T09:17:52.482Z,45.58
2022-08-01T09:20:36.717Z,36.90
2022-08-01T09:23:54.234Z,34.97
2022-08-01T09:26:41.659Z,37.20
2022-08-01T09:29:38.332Z,33.63
2022-08-01T09:32:22.762Z,38.40
2022-08-01T09:35:36.304Z,37.50
2022-08-01T09:38:37.532Z,35.22
2022-08-01T09:41:37.444Z,27.75
2022-08-01T09:44:42.193Z,29.88
2022-08-01T09:47:40.275Z,37.58
2022-08-01T09:50:29.483Z,35.05
2022-08-01T09:53:30.361Z,30.33
2022-08-01T09:56:20.255Z,36.30
2022-08-01T09:59:02.951Z,35.53
2022-08-01T10:02:03.252Z,35.53
2022-08-01T10:05:03.445Z,31.95
2022-08-01T10:08:08.498Z,31.55
2022-08-01T10:11:18.240Z,30.42
2022-08-01T10:14:00.956Z,35.17
2022-08-01T10:17:05.353Z,32.75
2022-08-01T10:19:52.370Z,26.55
2022-08-01T10:22:44.238Z,32.58
2022-08-01T10:25:42.379Z,36.63
2022-08-01T10:28:34.207Z,31.45
2022-08-01T10:31:30.860Z,35.70
2022-08-01T10:34:20.522Z,31.83
2022-08-01T10:37:07.033Z,36.57
2022-08-01T10:40:14.234Z,30.35
2022-08-01T10:43:00.739Z,35.35
2022-08-01T10:45:52.341Z,37.63
2022-08-01T10:48:48.949Z,36.35
2022-08-01T10:51:52.740Z,35.50
2022-08-01T10:54:36.979Z,27.95
2022-08-01T10:57:27.657Z,28.05
2022-08-01T11:00:10.109Z,28.75
2022-08-01T11:03:12.218Z,37.53
2022-08-01T11:06:07.261Z,36.15
2022-08-01T11:09:03.332Z,41.55
2022-08-01T11:12:25.173Z,39.83
2022-08-01T11:15:14.743Z,41.13
2022-08-01T11:17:57.661Z,42.65
2022-08-01T11:21:57.659Z,41.80
2022-08-01T11:24:06.481Z,34.35
2022-08-01T11:27:33.993Z,35.47
2022-08-01T11:30:20.069Z,35.17
2022-08-01T11:33:11.300Z,34.47
2022-08-01T11:36:56.800Z,32.35
2022-08-01T11:39:38.709Z,29.48
2022-08-01T11:42:35.481Z,31.95
2022-08-01T11:45:18.777Z,33.05
2022-08-01T11:48:07.263Z,30.52
2022-08-01T11:50:51.935Z,41.15
2022-08-01T11:53:42.239Z,31.63
2022-08-01T11:56:31.521Z,29.35
2022-08-01T11:59:15.381Z,33.80
2022-08-01T12:02:10.512Z,27.15
2022-08-01T12:04:58.852Z,17.63
2022-08-01T12:07:52.631Z,19.80
2022-08-01T12:10:49.705Z,20.00
2022-08-01T12:13:38.235Z,17.52
2022-08-01T12:16:33.085Z,27.27
2022-08-01T12:19:16.927Z,19.38
2022-08-01T12:22:23.491Z,16.67
2022-08-01T12:25:14.986Z,16.13
2022-08-01T12:28:03.234Z,18.65
2022-08-01T12:30:46.644Z,18.25
2022-08-01T12:33:35.346Z,18.58
2022-08-01T12:36:24.270Z,16.20
2022-08-01T12:39:07.182Z,19.50
2022-08-01T12:41:59.288Z,19.10
2022-08-01T12:44:49.664Z,17.58
2022-08-01T12:47:33.488Z,16.23
2022-08-01T12:50:24.680Z,16.05
2022-08-01T12:53:07.305Z,16.35
2022-08-01T12:56:00.033Z,17.05
2022-08-01T12:58:50.239Z,19.33
2022-08-01T13:01:32.778Z,20.23
2022-08-01T13:04:27.513Z,22.23
2022-08-01T13:07:16.810Z,18.20
2022-08-01T13:10:00.260Z,17.92
2022-08-01T13:12:52.985Z,21.30
2022-08-01T13:15:44.253Z,23.33
2022-08-01T13:18:40.487Z,18.85
2022-08-01T13:21:28.609Z,19.25
2022-08-01T13:24:21.245Z,18.25
2022-08-01T13:27:13.875Z,17.08
2022-08-01T13:30:02.494Z,20.55
2022-08-01T13:32:52.474Z,19.80
2022-08-01T13:35:41.952Z,16.63
2022-08-01T13:38:23.258Z,24.27
2022-08-01T13:41:12.223Z,15.70
2022-08-01T13:43:58.120Z,19.40
2022-08-01T13:46:51.378Z,20.45
2022-08-01T13:49:38.089Z,17.63
2022-08-01T13:52:29.222Z,19.67
2022-08-01T13:55:11.549Z,17.02
2022-08-01T13:58:00.230Z,17.20
2022-08-01T14:00:42.835Z,18.50
2022-08-01T14:03:38.254Z,17.35
2022-08-01T14:06:28.624Z,24.08
2022-08-01T14:09:18.146Z,18.02
2022-08-01T14:12:12.217Z,17.75
2022-08-01T14:14:58.310Z,22.75
2022-08-01T14:17:48.098Z,19.15
2022-08-01T14:20:30.927Z,20.50
2022-08-01T14:23:19.501Z,19.23
2022-08-01T14:26:09.821Z,18.45
2022-08-01T14:29:01.211Z,19.33
2022-08-01T14:31:50.476Z,22.58
2022-08-01T14:34:39.281Z,22.10
2022-08-01T14:37:21.813Z,16.77
2022-08-01T14:40:14.242Z,19.60
2022-08-01T14:43:25.157Z,16.95
2022-08-01T14:46:11.804Z,22.15
2022-08-01T14:49:00.349Z,19.55
2022-08-01T14:51:42.813Z,18.98
2022-08-01T14:54:31.474Z,25.90
2022-08-01T14:57:20.239Z,21.50
2022-08-01T15:00:09.472Z,18.00
2022-08-01T15:02:51.596Z,22.55
2022-08-01T15:05:46.219Z,21.52
2022-08-01T15:08:28.924Z,23.13
2022-08-01T15:11:23.875Z,20.02
2022-08-01T15:14:24.627Z,29.80
2022-08-01T15:17:13.475Z,19.70
2022-08-01T15:19:57.447Z,23.02
2022-08-01T15:22:48.081Z,23.53
2022-08-01T15:25:40.911Z,25.05
2022-08-01T15:28:25.151Z,27.15
2022-08-01T15:31:14.784Z,28.98
2022-08-01T15:33:56.491Z,32.95
2022-08-01T15:36:45.227Z,24.40
2022-08-01T15:39:30.940Z,28.08
2022-08-01T15:42:27.044Z,25.75
2022-08-01T15:45:20.757Z,29.52
2022-08-01T15:48:18.279Z,32.40
2022-08-01T15:51:00.801Z,29.63
2022-08-01T15:53:51.293Z,27.80
2022-08-01T15:56:40.464Z,27.25
2022-08-01T15:59:22.961Z,28.98
2022-08-01T16:02:12.517Z,28.42
2022-08-01T16:05:07.505Z,45.50
2022-08-01T16:08:01.213Z,29.90
2022-08-01T16:10:43.236Z,32.28
2022-08-01T16:13:31.713Z,31.83
2022-08-01T16:16:16.233Z,30.33
2022-08-01T16:19:05.287Z,38.72
2022-08-01T16:21:49.237Z,32.38
2022-08-01T16:24:38.234Z,33.60
2022-08-01T16:27:23.296Z,33.80
2022-08-01T16:30:15.217Z,31.80
2022-08-01T16:32:59.893Z,29.95
2022-08-01T16:35:54.471Z,31.02
2022-08-01T16:38:43.486Z,39.85
2022-08-01T16:41:32.647Z,41.45
2022-08-01T16:44:33.117Z,36.65
2022-08-01T16:47:22.500Z,36.70
2022-08-01T16:50:12.471Z,36.45
2022-08-01T16:52:54.824Z,35.67
2022-08-01T16:55:49.339Z,33.20
2022-08-01T16:58:32.676Z,37.72
2022-08-01T17:01:58.605Z,45.35
2022-08-01T17:04:30.559Z,40.80
2022-08-01T17:07:26.338Z,43.92
2022-08-01T17:10:18.486Z,35.92
2022-08-01T17:13:07.236Z,37.28
2022-08-01T17:15:59.215Z,40.10
2022-08-01T17:18:41.985Z,37.33
2022-08-01T17:21:30.470Z,38.92
2022-08-01T17:24:16.432Z,46.58
2022-08-01T17:27:08.159Z,42.83
2022-08-01T17:29:52.889Z,38.08
2022-08-01T17:32:44.230Z,31.88
2022-08-01T17:35:33.212Z,40.20
2022-08-01T17:38:15.701Z,37.85
2022-08-01T17:41:05.470Z,35.15
2022-08-01T17:43:54.476Z,46.05
2022-08-01T17:46:36.659Z,33.20
2022-08-01T17:49:52.139Z,38.05
2022-08-01T17:52:29.535Z,38.60
2022-08-01T17:55:56.078Z,34.53
2022-08-01T17:58:49.081Z,35.58
2022-08-01T18:01:30.118Z,37.78
2022-08-01T18:04:28.476Z,36.90
2022-08-01T18:08:01.357Z,36.17
2022-08-01T18:10:40.299Z,35.88
2022-08-01T18:13:30.476Z,41.88
2022-08-01T18:16:14.594Z,38.63
2022-08-01T18:19:03.512Z,43.47
2022-08-01T18:21:52.239Z,37.13
2022-08-01T18:24:35.458Z,37.30
2022-08-01T18:27:24.451Z,38.88
2022-08-01T18:30:26.617Z,35.50
2022-08-01T18:33:15.642Z,38.60
2022-08-01T18:36:05.473Z,39.88
2022-08-01T18:38:47.875Z,41.03
2022-08-01T18:41:36.813Z,41.00
2022-08-01T18:44:19.190Z,49.53
2022-08-01T18:47:08.415Z,49.83
2022-08-01T18:49:57.953Z,35.38
2022-08-01T18:52:46.460Z,41.60
2022-08-01T18:55:35.482Z,38.55
2022-08-01T18:58:17.501Z,37.38
2022-08-01T19:01:06.338Z,47.88
2022-08-01T19:11:20.470Z,42.53
2022-08-01T19:14:10.494Z,40.72
2022-08-01T19:16:52.669Z,38.95
2022-08-01T19:19:42.448Z,46.25
2022-08-01T19:22:24.814Z,37.63
2022-08-01T19:25:13.208Z,42.72
2022-08-01T19:27:59.834Z,43.70
2022-08-01T19:30:53.503Z,53.25
2022-08-01T19:33:40.583Z,49.65
2022-08-01T19:36:34.485Z,66.22
2022-08-01T19:39:19.019Z,52.35
2022-08-01T19:42:13.232Z,50.00
2022-08-01T19:44:56.814Z,52.80
2022-08-01T19:47:51.558Z,49.90
2022-08-01T19:50:42.853Z,57.72
2022-08-01T19:53:32.482Z,58.33
2022-08-01T19:56:22.238Z,58.20
2022-08-01T19:59:05.458Z,56.47
2022-08-01T20:01:55.222Z,59.55
2022-08-01T20:04:38.110Z,64.93
2022-08-01T20:07:27.264Z,67.20
2022-08-01T20:10:23.329Z,58.40
2022-08-01T20:13:19.221Z,65.55
2022-08-01T20:16:04.292Z,62.22
2022-08-01T20:18:54.255Z,61.10
2022-08-01T20:21:37.751Z,60.08
2022-08-01T20:24:30.202Z,52.95
2022-08-01T20:27:23.472Z,58.42
2022-08-01T20:30:07.484Z,53.95
2022-08-01T20:32:58.122Z,61.33
2022-08-01T20:35:53.561Z,57.47
2022-08-01T20:38:42.767Z,54.22
2022-08-01T20:41:26.268Z,52.55
2022-08-01T20:44:16.642Z,50.33
2022-08-01T20:47:00.490Z,56.13
2022-08-01T20:49:50.782Z,49.65
2022-08-01T20:52:32.245Z,60.25
2022-08-01T20:55:20.518Z,51.53
2022-08-01T20:58:04.200Z,53.70
2022-08-01T21:00:55.538Z,49.58
2022-08-01T21:03:51.470Z,45.88
2022-08-01T21:06:46.224Z,49.03
2022-08-01T21:09:36.865Z,48.75
2022-08-01T21:12:59.324Z,57.97
2022-08-01T21:16:23.176Z,55.50
2022-08-01T21:19:28.759Z,50.38
2022-08-01T21:22:27.250Z,53.75
2022-08-01T21:25:20.498Z,49.17
2022-08-01T21:28:03.212Z,45.40
2022-08-01T21:30:53.851Z,51.55
2022-08-01T21:33:38.215Z,51.75
2022-08-01T21:36:53.227Z,50.53
2022-08-01T21:39:36.449Z,50.67
2022-08-01T21:42:24.580Z,48.78
2022-08-01T21:45:09.481Z,47.03
2022-08-01T21:47:53.333Z,45.38
2022-08-01T21:50:46.212Z,51.03
2022-08-01T21:53:43.455Z,42.78
2022-08-01T21:56:58.465Z,41.58
2022-08-01T22:00:01.570Z,46.15
2022-08-01T22:02:55.469Z,44.08
2022-08-01T22:05:50.904Z,45.65
2022-08-01T22:08:46.453Z,44.53
2022-08-01T22:11:31.408Z,41.95
2022-08-01T22:14:24.193Z,51.08
2022-08-01T22:17:06.438Z,48.85
2022-08-01T22:19:56.222Z,39.85
2022-08-01T22:22:52.222Z,49.20
2022-08-01T22:25:36.783Z,43.17
2022-08-01T22:28:26.216Z,44.90
2022-08-01T22:31:08.592Z,49.03
2022-08-01T22:33:57.194Z,47.28
2022-08-01T22:36:46.226Z,42.33
2022-08-01T22:39:39.778Z,41.67
2022-08-01T22:42:22.270Z,41.08
2022-08-01T22:45:40.051Z,44.22
2022-08-01T22:48:34.876Z,48.97
2022-08-01T22:51:27.857Z,46.97
2022-08-01T22:54:26.202Z,44.38
2022-08-01T22:57:37.298Z,50.88
2022-08-01T23:00:27.203Z,47.72
2022-08-01T23:03:34.769Z,51.15
2022-08-01T23:06:26.466Z,50.85
2022-08-01T23:09:09.735Z,56.15
2022-08-01T23:12:00.221Z,48.47
2022-08-01T23:14:56.354Z,53.97
2022-08-01T23:17:46.217Z,58.97
2022-08-01T23:20:29.520Z,58.80
2022-08-01T23:23:18.238Z,61.03
2022-08-01T23:26:15.468Z,69.07
2022-08-01T23:29:06.215Z,68.93
2022-08-01T23:32:03.048Z,69.10
2022-08-01T23:34:54.713Z,74.38
2022-08-01T23:37:37.215Z,71.10
2022-08-01T23:40:26.532Z,69.63
2022-08-01T23:43:16.652Z,69.85
2022-08-01T23:46:03.746Z,74.18
2022-08-01T23:48:54.472Z,67.40
2022-08-01T23:51:43.229Z,70.70
2022-08-01T23:54:25.762Z,67.95
2022-08-01T23:57:14.448Z,82.95
2022-08-01T23:59:58.515Z,79.00
